Latest Coastal Weather Observations for Laverton

IDV60701

Issued at 8:45 pm EDT Thursday 27 November 2014 (issued every 10 minutes, with the page automatically refreshed every 10 minutes)

About coastal observations | Map of coastal stations | Coastal observations for VIC | Marine services | Other Formats
Station Details ID: 087031 Name: LAVERTON RAAF Lat: -37.86 Lon: 144.76 Height: 20.1 m
Data from the previous 72 hours. | See also: Recent months at Laverton
Date/Time
EDT
Temp

°C
Wind Pressure Rain
since 9am
mm
Weather Cloud Vis
km
Sea
Height
m
Swell
Dir
 
Speed
knots
Gust
knots
hPa Trend Height
m
Period
s
Dir
27/08:30pm 13.5 S 9 13 1024.5 - 0.0 - - 10 - - - -
27/08:00pm 14.1 S 11 16 1024.4 - 0.0 - - 10 - - - -
27/07:30pm 14.7 S 11 15 1024.4 - 0.0 - - 10 - - - -
27/07:00pm 14.9 S 14 19 1024.5 - 0.0 - - 10 - - - -
27/06:30pm 15.4 S 14 18 1024.4 - 0.0 - - 10 - - - -
27/06:00pm 15.9 S 14 19 1024.4 - 0.0 - - 10 - - - -
27/05:30pm 15.8 S 15 20 1024.4 - 0.0 - - 10 - - - -
27/05:00pm 16.5 S 14 20 1024.6 - 0.0 - - 10 - - - -
27/04:30pm 16.6 S 14 19 1024.5 - 0.0 - - 10 - - - -
27/04:00pm 16.6 S 15 19 1024.8 - 0.0 - - 10 - - - -
27/03:30pm 16.9 S 13 20 1024.8 - 0.0 - - 10 - - - -
27/03:00pm 16.8 S 13 19 1025.1 - 0.0 - - 10 - - - -
27/02:30pm 16.6 S 12 16 1025.3 - 0.0 - - 10 - - - -
27/02:00pm 17.1 S 12 17 1025.4 - 0.0 - - 10 - - - -
27/01:30pm 17.3 S 11 15 1025.4 - 0.0 - - 10 - - - -
27/01:00pm 15.9 SSE 13 19 1025.7 - 0.0 - Partly cloudy 10 - - - -
27/12:30pm 16.2 SSE 11 16 1025.8 - 0.0 - Partly cloudy 10 - - - -
27/12:00pm 16.0 S 13 16 1026.1 - 0.0 - Mostly cloudy 10 - - - -
27/11:30am 16.2 S 11 15 1026.2 - 0.0 - Partly cloudy 10 - - - -
27/11:00am 15.2 SSE 11 16 1026.3 - 0.0 - Cloudy 10 - - - -
27/10:30am 15.0 SSE 12 17 1026.4 - 0.0 - Partly cloudy 10 - - - -
27/10:00am 15.1 SSE 10 13 1026.4 - 0.0 - Partly cloudy 10 - - - -
27/09:30am 14.7 S 10 15 1026.4 - 0.0 - Cloudy 10 - - - -
27/09:00am 14.3 S 10 14 1026.4 - 0.0 - Cloudy 10 - - - -
27/08:30am 14.0 S 9 13 1026.1 - 0.0 - Cloudy 10 - - - -
27/08:00am 13.8 SSE 7 9 1026.0 - 0.0 - Cloudy 10 - - - -
27/07:30am 13.4 SSE 9 13 1025.8 - 0.0 - Cloudy 10 - - - -
27/07:00am 13.2 SE 8 12 1025.4 - 0.0 - Cloudy 10 - - - -
27/06:30am 12.9 SSE 7 10 1025.2 - 0.0 - Cloudy 10 - - - -
27/06:00am 13.0 SSE 8 13 1024.9 - 0.0 - Cloudy 10 - - - -
27/05:30am 13.0 SSE 7 13 1024.5 - 0.0 - Cloudy 10 - - - -
27/05:00am 13.0 SSE 5 8 1024.2 - 0.0 - Cloudy 10 - - - -
27/04:30am 13.0 SSE 8 13 1024.2 - 0.0 - Cloudy 10 - - - -
27/04:00am 13.2 SSE 8 11 1023.8 - 0.0 - Cloudy 10 - - - -
27/03:30am 13.4 S 9 11 1023.7 - 0.0 - Cloudy 10 - - - -
27/03:00am 13.6 S 7 11 1023.8 - 0.0 - Mostly cloudy 10 - - - -
27/02:30am 13.6 S 8 12 1023.7 - 0.0 - Cloudy 10 - - - -
27/02:00am 13.3 SW 7 9 1023.9 - 0.0 - Cloudy 10 - - - -
27/01:30am 13.3 SW 7 10 1024.1 - 0.0 - Cloudy 10 - - - -
27/01:00am 13.2 SSW 6 8 1024.4 - 0.0 - Partly cloudy 10 - - - -
27/12:30am 13.0 S 7 11 1024.7 - 0.0 - Cloudy 10 - - - -
27/12:00am 13.5 S 10 15 1024.8 - 0.0 - Cloudy 10 - - - -
 
Date/Time
EDT
Temp

°C
Wind Pressure Rain
since 9am
mm
Weather Cloud Vis
km
Sea
Height
m
Swell
Dir
 
Speed
knots
Gust
knots
hPa Trend Height
m
Period
s
Dir
26/11:30pm 13.8 S 11 14 1024.8 - 0.0 - Cloudy 10 - - - -
26/11:00pm 14.0 S 11 16 1024.7 - 0.0 - Cloudy 10 - - - -
26/10:30pm 14.1 S 10 15 1024.7 - 0.0 - Partly cloudy 10 - - - -
26/10:00pm 14.3 S 11 15 1024.4 - 0.0 - Partly cloudy 10 - - - -
26/09:30pm 14.3 S 9 12 1024.1 - 0.0 - Partly cloudy 10 - - - -
26/09:00pm 14.4 S 10 14 1023.9 - 0.0 - Cloudy 10 - - - -
26/08:30pm 14.4 S 11 18 1023.6 - 0.0 - Partly cloudy 10 - - - -
26/08:00pm 14.6 S 10 16 1023.6 - 0.0 - Partly cloudy 10 - - - -
26/07:30pm 14.7 S 10 14 1023.3 - 0.0 - Partly cloudy 10 - - - -
26/07:00pm 15.2 S 11 15 1023.0 - 0.0 - Partly cloudy 10 - - - -
26/06:30pm 14.6 S 12 17 1022.7 - 0.0 - Partly cloudy 10 - - - -
26/06:00pm 14.7 S 10 18 1022.3 - 0.0 - Cloudy 10 - - - -
26/05:30pm 14.6 S 10 16 1022.3 - 0.0 - Partly cloudy 10 - - - -
26/05:00pm 14.6 S 13 17 1022.2 - 0.0 - Partly cloudy 10 - - - -
26/04:30pm 15.2 S 10 16 1022.1 - 0.0 - Partly cloudy 10 - - - -
26/04:25pm 15.2 S 10 16 1022.1 - 0.0 - Partly cloudy 10 - - - -
26/04:00pm 14.6 S 13 19 1022.1 - 0.0 - Partly cloudy 10 - - - -
26/03:32pm 15.6 SSE 12 18 1021.9 - 0.0 - Partly cloudy 10 - - - -
26/03:30pm 15.7 SSE 11 18 1021.9 - 0.0 - Partly cloudy 10 - - - -
26/03:00pm 16.3 SSE 11 15 1021.8 - 0.0 - Cloudy 10 - - - -
26/02:30pm 17.4 ESE 5 8 1021.4 - 0.0 - Partly cloudy 10 - - - -
26/02:00pm 18.0 S 5 7 1021.4 - 0.0 - Cloudy 10 - - - -
26/01:30pm 18.1 SSW 6 9 1021.4 - 0.0 - Cloudy 10 - - - -
26/01:00pm 18.1 ESE 5 10 1021.5 - 0.0 - Partly cloudy 10 - - - -
26/12:30pm 17.5 S 7 11 1021.6 - 0.0 - Partly cloudy 10 - - - -
26/12:00pm 17.4 SSW 7 10 1021.6 - 0.0 - Cloudy 10 - - - -
26/11:30am 18.1 SW 7 11 1021.7 - 0.0 - Partly cloudy 10 - - - -
26/11:00am 17.5 SW 8 10 1021.6 - 0.0 - Partly cloudy 10 - - - -
26/10:30am 16.7 SSW 7 12 1021.6 - 0.0 - Partly cloudy 10 - - - -
26/10:00am 15.6 SSW 11 12 1021.8 - 0.0 - Cloudy 10 - - - -
26/09:30am 15.3 WSW 9 15 1021.9 - 0.0 - Cloudy 10 - - - -
26/09:00am 14.9 W 6 11 1021.8 - 0.0 - Mostly cloudy 10 - - - -
26/08:30am 13.6 WNW 5 7 1021.7 - 0.0 - Partly cloudy 10 - - - -
26/08:00am 12.2 NW 7 9 1021.5 - 0.0 - Cloudy 10 - - - -
26/07:30am 11.2 NW 6 7 1021.4 - 0.0 - Partly cloudy 10 - - - -
26/07:00am 10.1 NW 6 8 1021.0 - 0.0 - Partly cloudy 10 - - - -
26/06:30am 9.3 NW 7 8 1020.9 - 0.0 - - 10 - - - -
26/06:00am 8.8 NW 6 7 1020.6 - 0.0 - Mostly cloudy 10 - - - -
26/05:30am 8.8 NW 7 8 1020.4 - 0.0 - - 10 - - - -
26/05:00am 8.6 NW 6 7 1020.2 - 0.0 - - 10 - - - -
26/04:30am 8.0 NW 5 7 1020.2 - 0.0 - - 10 - - - -
26/04:00am 8.2 NW 5 7 1020.3 - 0.0 - - 10 - - - -
26/03:30am 8.5 NW 7 8 1020.3 - 0.0 - - 10 - - - -
26/03:00am 8.6 WNW 7 8 1020.2 - 0.0 - Mostly cloudy 10 - - - -
26/02:30am 8.8 NW 7 8 1020.5 - 0.0 - - 10 - - - -
26/02:00am 9.2 NW 6 6 1020.8 - 0.0 - - 10 - - - -
26/01:30am 9.5 NW 5 5 1021.0 - 0.0 - - 10 - - - -
26/01:00am 10.1 NNW 5 6 1021.2 - 0.0 - - 10 - - - -
26/12:30am 11.0 NNW 5 6 1021.4 - 0.0 - - 10 - - - -
26/12:00am 12.3 NW 5 5 1021.6 - 0.0 - Mostly clear 10 - - - -
 
Date/Time
EDT
Temp

°C
Wind Pressure Rain
since 9am
mm
Weather Cloud Vis
km
Sea
Height
m
Swell
Dir
 
Speed
knots
Gust
knots
hPa Trend Height
m
Period
s
Dir
25/11:30pm 13.2 WNW 5 6 1021.7 - 0.0 - Partly cloudy 10 - - - -
25/11:00pm 13.4 SSW 3 4 1021.8 - 0.0 - Cloudy 10 - - - -
25/10:30pm 13.7 SW 6 9 1021.8 - 0.0 - Partly cloudy 10 - - - -
25/10:00pm 13.9 SW 7 10 1021.6 - 0.0 - - 10 - - - -
25/09:30pm 14.7 SW 9 13 1021.2 - 0.0 - Partly cloudy 10 - - - -
25/09:00pm 15.3 SW 10 13 1020.8 - 0.0 - - 10 - - - -
25/08:30pm 16.4 SW 11 16 1020.4 - 0.0 - Partly cloudy 10 - - - -
25/08:00pm 18.0 SSW 8 14 1020.0 - 0.0 - Cloudy 10 - - - -
25/07:30pm 16.9 ESE 9 15 1019.7 - 0.0 - Cloudy 10 - - - -
25/07:00pm 16.9 SE 11 15 1019.3 - 0.0 - Partly cloudy 10 - - - -
25/06:30pm 17.0 SE 10 16 1018.8 - 0.0 - Partly cloudy 10 - - - -
25/06:00pm 16.8 SSE 11 15 1018.6 - 0.0 - Mostly cloudy 10 - - - -
25/05:30pm 18.7 S 11 13 1018.5 - 0.0 - Partly cloudy 10 - - - -
25/05:00pm 21.0 SW 13 19 1018.3 - 0.0 - Partly cloudy 10 - - - -
25/04:30pm 21.6 WSW 13 17 1018.3 - 0.0 - Partly cloudy 10 - - - -
25/04:00pm 20.1 WSW 13 21 1018.4 - 0.0 - Cloudy 10 - - - -
25/03:30pm 20.7 WSW 14 20 1018.5 - 0.0 - Partly cloudy 10 - - - -
25/03:00pm 20.7 SW 14 21 1018.5 - 0.0 - Partly cloudy 10 - - - -
25/02:30pm 20.5 W 14 20 1018.5 - 0.0 - Partly cloudy 10 - - - -
25/02:00pm 20.5 W 13 22 1018.5 - 0.0 - Partly cloudy 10 - - - -
25/01:30pm 19.9 WSW 15 20 1018.4 - 0.0 - Partly cloudy 10 - - - -
25/01:00pm 18.8 WSW 14 19 1018.6 - 0.0 - Cloudy 10 - - - -
25/12:30pm 19.0 WSW 14 21 1018.6 - 0.0 - Partly cloudy 10 - - - -
25/12:00pm 18.3 WSW 13 19 1018.7 - 0.0 - Mostly cloudy 10 - - - -
25/11:30am 17.7 W 14 20 1018.9 - 0.0 - Partly cloudy 10 - - - -
25/11:00am 17.6 W 13 20 1018.8 - 0.0 - Partly cloudy 10 - - - -
25/10:30am 17.2 W 13 18 1018.9 - 0.0 - Partly cloudy 10 - - - -
25/10:00am 16.1 WSW 15 23 1018.9 - 0.0 - Partly cloudy 10 - - - -
25/09:30am 15.6 W 13 19 1018.8 - 0.0 - Partly cloudy 10 - - - -
25/09:00am 14.9 W 14 20 1018.5 - 9.6 - Cloudy 10 - - - -
25/08:30am 14.7 W 11 16 1018.0 - 9.6 - Partly cloudy 10 - - - -
25/08:00am 13.3 WNW 9 12 1017.5 - 9.6 - - 10 - - - -
25/07:30am 11.2 NW 9 13 1017.2 - 9.6 - - 10 - - - -
25/07:00am 10.3 NW 7 9 1016.7 - 9.6 - - 10 - - - -
25/06:30am 9.3 WNW 9 11 1016.0 - 9.6 - - 10 - - - -
25/06:00am 9.5 WNW 8 11 1015.7 - 9.6 - - 10 - - - -
25/05:30am 9.4 WNW 8 10 1015.4 - 9.6 - - 10 - - - -
25/05:00am 9.8 WNW 8 12 1015.1 - 9.6 - - 10 - - - -
25/04:30am 10.3 WNW 9 14 1014.8 - 9.6 - - 10 - - - -
25/04:00am 10.7 W 11 16 1014.6 - 9.6 - - 10 - - - -
25/03:30am 10.7 W 11 14 1014.5 - 9.6 - - 10 - - - -
25/03:00am 10.9 W 11 15 1014.7 - 9.6 - - 10 - - - -
25/02:30am 10.9 WNW 10 15 1014.7 - 9.6 - - 10 - - - -
25/02:00am 10.0 WNW 9 12 1014.5 - 9.6 - - 10 - - - -
25/01:30am 9.9 WNW 9 11 1014.3 - 9.6 - Partly cloudy 10 - - - -
25/01:00am 10.2 WNW 8 10 1014.5 - 9.6 - Partly cloudy 10 - - - -
25/12:30am 11.1 WNW 8 9 1014.4 - 9.6 - - 10 - - - -
25/12:00am 11.8 W 9 11 1014.2 - 9.6 - - 10 - - - -
 
Date/Time
EDT
Temp

°C
Wind Pressure Rain
since 9am
mm
Weather Cloud Vis
km
Sea
Height
m
Swell
Dir
 
Speed
knots
Gust
knots
hPa Trend Height
m
Period
s
Dir
24/11:30pm 12.4 W 8 12 1014.0 - 9.6 - - 10 - - - -
24/11:00pm 12.8 WSW 8 10 1013.7 - 9.6 - - 10 - - - -
24/10:30pm 13.2 W 9 13 1013.8 - 9.6 - - 10 - - - -
24/10:00pm 13.1 W 7 9 1013.4 - 9.6 - - 10 - - - -
24/09:30pm 13.6 W 8 10 1013.0 - 9.6 - - 10 - - - -
24/09:00pm 14.2 W 8 12 1012.7 - 9.6 - Mostly cloudy 10 - - - -

Other Formats:

Comma delimited format used in spreadsheet applications
http://www.bom.gov.au/fwo/IDV60701/IDV60701.94865.axf

JavaScript Object Notation format (JSON) in row-major order
http://www.bom.gov.au/fwo/IDV60701/IDV60701.94865.json